sensor_id;sensor_type;location;lat;lon;timestamp;temperature;humidity
18712;DHT22;9485;49.386;8.674;2022-12-29T00:04:04;14.00;89.30
18712;DHT22;9485;49.386;8.674;2022-12-29T00:09:27;14.00;89.10
18712;DHT22;9485;49.386;8.674;2022-12-29T00:14:47;14.10;89.00
18712;DHT22;9485;49.386;8.674;2022-12-29T00:20:26;14.20;90.00
18712;DHT22;9485;49.386;8.674;2022-12-29T00:26:12;14.20;89.40
18712;DHT22;9485;49.386;8.674;2022-12-29T00:31:53;14.20;88.20
18712;DHT22;9485;49.386;8.674;2022-12-29T00:37:46;14.30;89.40
18712;DHT22;9485;49.386;8.674;2022-12-29T00:43:28;14.30;89.50
18712;DHT22;9485;49.386;8.674;2022-12-29T00:49:07;14.20;89.10
18712;DHT22;9485;49.386;8.674;2022-12-29T00:54:47;14.30;88.80
18712;DHT22;9485;49.386;8.674;2022-12-29T01:00:10;14.20;88.40
18712;DHT22;9485;49.386;8.674;2022-12-29T01:05:35;14.20;88.10
18712;DHT22;9485;49.386;8.674;2022-12-29T01:10:59;14.20;87.80
18712;DHT22;9485;49.386;8.674;2022-12-29T01:16:22;14.20;87.40
18712;DHT22;9485;49.386;8.674;2022-12-29T01:21:42;14.20;88.20
18712;DHT22;9485;49.386;8.674;2022-12-29T01:27:03;14.20;88.40
18712;DHT22;9485;49.386;8.674;2022-12-29T01:32:25;14.20;88.00
18712;DHT22;9485;49.386;8.674;2022-12-29T01:37:45;14.20;88.00
18712;DHT22;9485;49.386;8.674;2022-12-29T01:43:08;14.20;88.70
18712;DHT22;9485;49.386;8.674;2022-12-29T01:48:31;14.40;89.20
18712;DHT22;9485;49.386;8.674;2022-12-29T01:53:54;14.60;89.00
18712;DHT22;9485;49.386;8.674;2022-12-29T01:59:20;14.60;88.90
18712;DHT22;9485;49.386;8.674;2022-12-29T02:04:47;14.70;88.60
18712;DHT22;9485;49.386;8.674;2022-12-29T02:10:10;14.80;89.00
18712;DHT22;9485;49.386;8.674;2022-12-29T02:15:47;14.70;88.70
18712;DHT22;9485;49.386;8.674;2022-12-29T02:21:43;14.60;88.90
18712;DHT22;9485;49.386;8.674;2022-12-29T02:27:43;14.50;88.50
18712;DHT22;9485;49.386;8.674;2022-12-29T02:33:21;14.40;88.90
18712;DHT22;9485;49.386;8.674;2022-12-29T02:38:55;14.40;89.40
18712;DHT22;9485;49.386;8.674;2022-12-29T02:44:29;14.40;90.10
18712;DHT22;9485;49.386;8.674;2022-12-29T02:50:00;14.40;90.20
18712;DHT22;9485;49.386;8.674;2022-12-29T02:55:27;14.50;90.30
18712;DHT22;9485;49.386;8.674;2022-12-29T03:00:56;14.50;90.40
18712;DHT22;9485;49.386;8.674;2022-12-29T03:06:35;14.50;90.40
18712;DHT22;9485;49.386;8.674;2022-12-29T03:12:13;14.40;90.50
18712;DHT22;9485;49.386;8.674;2022-12-29T03:17:51;14.50;90.40
18712;DHT22;9485;49.386;8.674;2022-12-29T03:23:17;14.50;90.60
18712;DHT22;9485;49.386;8.674;2022-12-29T03:28:44;14.40;90.80
18712;DHT22;9485;49.386;8.674;2022-12-29T03:34:13;14.40;90.90
18712;DHT22;9485;49.386;8.674;2022-12-29T03:39:37;14.40;91.00
18712;DHT22;9485;49.386;8.674;2022-12-29T03:44:58;14.40;91.00
18712;DHT22;9485;49.386;8.674;2022-12-29T03:50:19;14.30;91.10
18712;DHT22;9485;49.386;8.674;2022-12-29T03:55:43;14.30;91.00
18712;DHT22;9485;49.386;8.674;2022-12-29T04:01:04;14.30;90.80
18712;DHT22;9485;49.386;8.674;2022-12-29T04:06:27;14.30;90.90
18712;DHT22;9485;49.386;8.674;2022-12-29T04:11:55;14.30;91.00
18712;DHT22;9485;49.386;8.674;2022-12-29T04:17:16;14.30;91.10
18712;DHT22;9485;49.386;8.674;2022-12-29T04:22:39;14.30;91.10
18712;DHT22;9485;49.386;8.674;2022-12-29T04:28:01;14.40;91.00
18712;DHT22;9485;49.386;8.674;2022-12-29T04:33:40;14.40;90.70
18712;DHT22;9485;49.386;8.674;2022-12-29T04:39:01;14.40;90.90
18712;DHT22;9485;49.386;8.674;2022-12-29T04:44:27;14.50;91.00
18712;DHT22;9485;49.386;8.674;2022-12-29T04:49:47;14.50;90.70
18712;DHT22;9485;49.386;8.674;2022-12-29T04:55:26;14.50;90.70
18712;DHT22;9485;49.386;8.674;2022-12-29T05:00:48;14.60;90.50
18712;DHT22;9485;49.386;8.674;2022-12-29T05:06:10;14.60;90.20
18712;DHT22;9485;49.386;8.674;2022-12-29T05:11:30;14.70;90.50
18712;DHT22;9485;49.386;8.674;2022-12-29T05:16:53;14.70;90.10
18712;DHT22;9485;49.386;8.674;2022-12-29T05:22:14;14.70;90.00
18712;DHT22;9485;49.386;8.674;2022-12-29T05:27:37;14.80;90.20
18712;DHT22;9485;49.386;8.674;2022-12-29T05:33:10;14.80;89.80
18712;DHT22;9485;49.386;8.674;2022-12-29T05:38:32;14.80;90.00
18712;DHT22;9485;49.386;8.674;2022-12-29T05:43:53;14.80;90.00
18712;DHT22;9485;49.386;8.674;2022-12-29T05:49:40;14.90;90.10
18712;DHT22;9485;49.386;8.674;2022-12-29T05:55:22;14.90;90.10
18712;DHT22;9485;49.386;8.674;2022-12-29T06:00:45;14.90;90.00
18712;DHT22;9485;49.386;8.674;2022-12-29T06:06:09;14.90;90.00
18712;DHT22;9485;49.386;8.674;2022-12-29T06:11:30;14.90;89.70
18712;DHT22;9485;49.386;8.674;2022-12-29T06:16:56;14.90;89.70
18712;DHT22;9485;49.386;8.674;2022-12-29T06:22:19;14.90;89.30
18712;DHT22;9485;49.386;8.674;2022-12-29T06:27:40;14.90;89.10
18712;DHT22;9485;49.386;8.674;2022-12-29T06:33:01;14.90;89.60
18712;DHT22;9485;49.386;8.674;2022-12-29T06:38:23;14.90;88.30
18712;DHT22;9485;49.386;8.674;2022-12-29T06:43:44;14.90;88.60
18712;DHT22;9485;49.386;8.674;2022-12-29T06:49:21;14.90;88.80
18712;DHT22;9485;49.386;8.674;2022-12-29T06:54:43;14.90;88.80
18712;DHT22;9485;49.386;8.674;2022-12-29T07:00:05;14.90;88.20
18712;DHT22;9485;49.386;8.674;2022-12-29T07:05:26;14.90;88.90
18712;DHT22;9485;49.386;8.674;2022-12-29T07:10:49;14.90;89.20
18712;DHT22;9485;49.386;8.674;2022-12-29T07:16:10;14.90;89.00
18712;DHT22;9485;49.386;8.674;2022-12-29T07:21:30;14.90;88.70
18712;DHT22;9485;49.386;8.674;2022-12-29T07:26:52;14.90;88.30
18712;DHT22;9485;49.386;8.674;2022-12-29T07:32:13;14.90;88.50
18712;DHT22;9485;49.386;8.674;2022-12-29T07:37:33;15.00;88.80
18712;DHT22;9485;49.386;8.674;2022-12-29T07:42:56;15.00;88.60
18712;DHT22;9485;49.386;8.674;2022-12-29T07:48:26;15.10;88.30
18712;DHT22;9485;49.386;8.674;2022-12-29T07:53:47;15.10;87.40
18712;DHT22;9485;49.386;8.674;2022-12-29T07:59:09;15.10;87.40
18712;DHT22;9485;49.386;8.674;2022-12-29T08:04:31;15.10;86.90
18712;DHT22;9485;49.386;8.674;2022-12-29T08:09:52;15.20;87.60
18712;DHT22;9485;49.386;8.674;2022-12-29T08:15:14;15.20;86.50
18712;DHT22;9485;49.386;8.674;2022-12-29T08:20:35;15.20;86.70
18712;DHT22;9485;49.386;8.674;2022-12-29T08:25:58;15.30;87.60
18712;DHT22;9485;49.386;8.674;2022-12-29T08:31:22;15.30;87.00
18712;DHT22;9485;49.386;8.674;2022-12-29T08:36:42;15.40;87.00
18712;DHT22;9485;49.386;8.674;2022-12-29T08:42:04;15.40;87.00
18712;DHT22;9485;49.386;8.674;2022-12-29T08:47:27;15.30;86.30
18712;DHT22;9485;49.386;8.674;2022-12-29T08:52:47;15.40;86.10
18712;DHT22;9485;49.386;8.674;2022-12-29T08:58:08;15.40;86.00
18712;DHT22;9485;49.386;8.674;2022-12-29T09:03:35;15.50;86.70
18712;DHT22;9485;49.386;8.674;2022-12-29T09:08:55;15.50;86.10
18712;DHT22;9485;49.386;8.674;2022-12-29T09:14:16;15.60;86.10
18712;DHT22;9485;49.386;8.674;2022-12-29T09:19:38;15.60;86.20
18712;DHT22;9485;49.386;8.674;2022-12-29T09:24:59;15.60;86.20
18712;DHT22;9485;49.386;8.674;2022-12-29T09:30:22;15.60;86.80
18712;DHT22;9485;49.386;8.674;2022-12-29T09:35:45;15.60;85.50
18712;DHT22;9485;49.386;8.674;2022-12-29T09:41:15;15.60;85.40
18712;DHT22;9485;49.386;8.674;2022-12-29T09:46:43;15.60;85.20
18712;DHT22;9485;49.386;8.674;2022-12-29T09:52:14;15.50;86.20
18712;DHT22;9485;49.386;8.674;2022-12-29T09:57:42;15.50;85.80
18712;DHT22;9485;49.386;8.674;2022-12-29T10:03:13;15.40;87.00
18712;DHT22;9485;49.386;8.674;2022-12-29T10:08:41;15.30;87.40
18712;DHT22;9485;49.386;8.674;2022-12-29T10:14:26;15.20;87.70
18712;DHT22;9485;49.386;8.674;2022-12-29T10:20:19;15.10;87.70
18712;DHT22;9485;49.386;8.674;2022-12-29T10:25:55;15.00;88.00
18712;DHT22;9485;49.386;8.674;2022-12-29T10:31:20;15.00;89.10
18712;DHT22;9485;49.386;8.674;2022-12-29T10:36:44;15.00;89.50
18712;DHT22;9485;49.386;8.674;2022-12-29T10:42:15;15.10;89.80
18712;DHT22;9485;49.386;8.674;2022-12-29T10:47:53;15.20;90.10
18712;DHT22;9485;49.386;8.674;2022-12-29T10:53:21;15.30;88.70
18712;DHT22;9485;49.386;8.674;2022-12-29T10:58:50;15.30;89.40
18712;DHT22;9485;49.386;8.674;2022-12-29T11:04:33;15.40;89.70
18712;DHT22;9485;49.386;8.674;2022-12-29T11:10:20;15.50;88.30
18712;DHT22;9485;49.386;8.674;2022-12-29T11:18:50;15.60;86.70
18712;DHT22;9485;49.386;8.674;2022-12-29T11:24:20;15.70;90.00
18712;DHT22;9485;49.386;8.674;2022-12-29T11:29:44;15.80;88.50
18712;DHT22;9485;49.386;8.674;2022-12-29T11:35:30;15.90;88.90
18712;DHT22;9485;49.386;8.674;2022-12-29T11:40:53;16.00;87.50
18712;DHT22;9485;49.386;8.674;2022-12-29T11:46:16;16.00;88.80
18712;DHT22;9485;49.386;8.674;2022-12-29T11:51:45;16.10;88.30
18712;DHT22;9485;49.386;8.674;2022-12-29T11:57:10;16.10;87.50
18712;DHT22;9485;49.386;8.674;2022-12-29T12:02:38;16.10;88.20
18712;DHT22;9485;49.386;8.674;2022-12-29T12:08:09;16.10;86.30
18712;DHT22;9485;49.386;8.674;2022-12-29T12:13:36;16.10;85.10
18712;DHT22;9485;49.386;8.674;2022-12-29T12:19:08;16.00;85.10
18712;DHT22;9485;49.386;8.674;2022-12-29T12:24:39;15.90;85.60
18712;DHT22;9485;49.386;8.674;2022-12-29T12:30:05;15.90;86.00
18712;DHT22;9485;49.386;8.674;2022-12-29T12:35:42;15.90;86.30
18712;DHT22;9485;49.386;8.674;2022-12-29T12:41:13;15.90;86.00
18712;DHT22;9485;49.386;8.674;2022-12-29T12:46:53;15.90;86.60
18712;DHT22;9485;49.386;8.674;2022-12-29T12:52:30;15.90;86.90
18712;DHT22;9485;49.386;8.674;2022-12-29T12:58:04;15.90;87.80
18712;DHT22;9485;49.386;8.674;2022-12-29T13:03:44;15.90;88.90
18712;DHT22;9485;49.386;8.674;2022-12-29T13:09:26;15.80;87.90
18712;DHT22;9485;49.386;8.674;2022-12-29T13:15:05;15.60;87.90
18712;DHT22;9485;49.386;8.674;2022-12-29T13:20:39;15.20;87.70
18712;DHT22;9485;49.386;8.674;2022-12-29T13:26:13;14.80;88.40
18712;DHT22;9485;49.386;8.674;2022-12-29T13:31:46;14.50;90.10
18712;DHT22;9485;49.386;8.674;2022-12-29T13:37:15;14.30;90.60
18712;DHT22;9485;49.386;8.674;2022-12-29T13:42:38;14.10;91.10
18712;DHT22;9485;49.386;8.674;2022-12-29T13:48:06;14.00;91.40
18712;DHT22;9485;49.386;8.674;2022-12-29T13:53:37;13.90;91.70
18712;DHT22;9485;49.386;8.674;2022-12-29T13:59:13;13.80;92.10
18712;DHT22;9485;49.386;8.674;2022-12-29T14:04:56;13.70;92.30
18712;DHT22;9485;49.386;8.674;2022-12-29T14:10:28;13.70;92.50
18712;DHT22;9485;49.386;8.674;2022-12-29T14:15:54;13.60;92.70
18712;DHT22;9485;49.386;8.674;2022-12-29T14:21:21;13.60;92.80
18712;DHT22;9485;49.386;8.674;2022-12-29T14:26:47;13.60;93.00
18712;DHT22;9485;49.386;8.674;2022-12-29T14:32:35;13.60;93.20
18712;DHT22;9485;49.386;8.674;2022-12-29T14:38:13;13.60;93.30
18712;DHT22;9485;49.386;8.674;2022-12-29T14:44:15;13.60;93.60
18712;DHT22;9485;49.386;8.674;2022-12-29T14:49:41;13.50;93.30
18712;DHT22;9485;49.386;8.674;2022-12-29T14:55:30;13.40;93.20
18712;DHT22;9485;49.386;8.674;2022-12-29T15:00:59;13.30;93.30
18712;DHT22;9485;49.386;8.674;2022-12-29T15:06:28;13.10;93.30
18712;DHT22;9485;49.386;8.674;2022-12-29T15:11:56;13.00;93.50
18712;DHT22;9485;49.386;8.674;2022-12-29T15:17:25;12.90;93.70
18712;DHT22;9485;49.386;8.674;2022-12-29T15:22:50;12.80;93.80
18712;DHT22;9485;49.386;8.674;2022-12-29T15:28:15;12.70;94.00
18712;DHT22;9485;49.386;8.674;2022-12-29T15:33:40;12.70;94.20
18712;DHT22;9485;49.386;8.674;2022-12-29T15:39:17;12.60;94.30
18712;DHT22;9485;49.386;8.674;2022-12-29T15:44:42;12.60;94.40
18712;DHT22;9485;49.386;8.674;2022-12-29T15:50:07;12.50;94.50
18712;DHT22;9485;49.386;8.674;2022-12-29T15:55:43;12.60;94.60
18712;DHT22;9485;49.386;8.674;2022-12-29T16:01:17;12.50;94.50
18712;DHT22;9485;49.386;8.674;2022-12-29T16:06:45;12.40;94.40
18712;DHT22;9485;49.386;8.674;2022-12-29T16:12:18;12.30;94.40
18712;DHT22;9485;49.386;8.674;2022-12-29T16:17:46;12.30;94.50
18712;DHT22;9485;49.386;8.674;2022-12-29T16:23:18;12.20;94.70
18712;DHT22;9485;49.386;8.674;2022-12-29T16:28:41;12.20;94.80
18712;DHT22;9485;49.386;8.674;2022-12-29T16:34:23;12.20;95.00
18712;DHT22;9485;49.386;8.674;2022-12-29T16:39:44;12.20;95.10
18712;DHT22;9485;49.386;8.674;2022-12-29T16:51:32;12.20;95.30
18712;DHT22;9485;49.386;8.674;2022-12-29T16:56:55;12.20;95.40
18712;DHT22;9485;49.386;8.674;2022-12-29T17:02:19;12.30;95.50
18712;DHT22;9485;49.386;8.674;2022-12-29T17:07:44;12.30;95.50
18712;DHT22;9485;49.386;8.674;2022-12-29T17:13:06;12.30;95.60
18712;DHT22;9485;49.386;8.674;2022-12-29T17:18:27;12.30;95.70
18712;DHT22;9485;49.386;8.674;2022-12-29T17:23:49;12.30;95.70
18712;DHT22;9485;49.386;8.674;2022-12-29T17:29:16;12.30;95.70
18712;DHT22;9485;49.386;8.674;2022-12-29T17:34:41;12.30;95.70
18712;DHT22;9485;49.386;8.674;2022-12-29T17:40:05;12.30;95.70
18712;DHT22;9485;49.386;8.674;2022-12-29T17:45:31;12.30;95.80
18712;DHT22;9485;49.386;8.674;2022-12-29T17:50:53;12.30;95.80
18712;DHT22;9485;49.386;8.674;2022-12-29T17:56:18;12.30;95.80
18712;DHT22;9485;49.386;8.674;2022-12-29T18:01:39;12.20;95.90
18712;DHT22;9485;49.386;8.674;2022-12-29T18:06:59;12.20;95.90
18712;DHT22;9485;49.386;8.674;2022-12-29T18:12:27;12.20;95.90
18712;DHT22;9485;49.386;8.674;2022-12-29T18:17:53;12.20;95.90
18712;DHT22;9485;49.386;8.674;2022-12-29T18:23:20;12.10;95.80
18712;DHT22;9485;49.386;8.674;2022-12-29T18:28:43;12.10;95.80
18712;DHT22;9485;49.386;8.674;2022-12-29T18:34:12;12.10;95.90
18712;DHT22;9485;49.386;8.674;2022-12-29T18:39:34;12.10;95.90
18712;DHT22;9485;49.386;8.674;2022-12-29T18:44:57;12.00;95.90
18712;DHT22;9485;49.386;8.674;2022-12-29T18:50:18;12.00;95.90
18712;DHT22;9485;49.386;8.674;2022-12-29T18:55:39;11.90;95.90
18712;DHT22;9485;49.386;8.674;2022-12-29T19:01:01;11.90;95.90
18712;DHT22;9485;49.386;8.674;2022-12-29T19:06:22;11.80;96.00
18712;DHT22;9485;49.386;8.674;2022-12-29T19:11:42;11.80;96.10
18712;DHT22;9485;49.386;8.674;2022-12-29T19:17:08;11.80;96.10
18712;DHT22;9485;49.386;8.674;2022-12-29T19:22:30;11.80;96.20
18712;DHT22;9485;49.386;8.674;2022-12-29T19:27:51;11.80;96.30
18712;DHT22;9485;49.386;8.674;2022-12-29T19:33:14;11.80;96.30
18712;DHT22;9485;49.386;8.674;2022-12-29T19:38:35;11.80;96.30
18712;DHT22;9485;49.386;8.674;2022-12-29T19:43:55;11.80;96.30
18712;DHT22;9485;49.386;8.674;2022-12-29T19:49:17;11.70;96.30
18712;DHT22;9485;49.386;8.674;2022-12-29T19:54:38;11.70;96.40
18712;DHT22;9485;49.386;8.674;2022-12-29T19:59:58;11.70;96.40
18712;DHT22;9485;49.386;8.674;2022-12-29T20:05:20;11.70;96.50
18712;DHT22;9485;49.386;8.674;2022-12-29T20:10:40;11.70;96.50
18712;DHT22;9485;49.386;8.674;2022-12-29T20:16:03;11.80;96.50
18712;DHT22;9485;49.386;8.674;2022-12-29T20:21:27;11.80;96.50
18712;DHT22;9485;49.386;8.674;2022-12-29T20:26:47;11.80;96.50
18712;DHT22;9485;49.386;8.674;2022-12-29T20:32:09;11.80;96.40
18712;DHT22;9485;49.386;8.674;2022-12-29T20:37:31;11.70;96.40
18712;DHT22;9485;49.386;8.674;2022-12-29T20:42:52;11.70;96.40
18712;DHT22;9485;49.386;8.674;2022-12-29T20:48:12;11.70;96.40
18712;DHT22;9485;49.386;8.674;2022-12-29T20:53:36;11.70;96.70
18712;DHT22;9485;49.386;8.674;2022-12-29T20:58:57;11.70;96.40
18712;DHT22;9485;49.386;8.674;2022-12-29T21:04:18;11.70;96.50
18712;DHT22;9485;49.386;8.674;2022-12-29T21:09:40;11.70;96.40
18712;DHT22;9485;49.386;8.674;2022-12-29T21:15:01;11.60;96.40
18712;DHT22;9485;49.386;8.674;2022-12-29T21:20:22;11.70;96.40
18712;DHT22;9485;49.386;8.674;2022-12-29T21:25:51;11.70;96.40
18712;DHT22;9485;49.386;8.674;2022-12-29T21:31:22;11.70;96.40
18712;DHT22;9485;49.386;8.674;2022-12-29T21:36:45;11.70;96.70
18712;DHT22;9485;49.386;8.674;2022-12-29T21:42:06;11.70;96.40
18712;DHT22;9485;49.386;8.674;2022-12-29T21:47:27;11.60;96.30
18712;DHT22;9485;49.386;8.674;2022-12-29T21:53:07;11.60;96.30
18712;DHT22;9485;49.386;8.674;2022-12-29T21:58:29;11.60;96.30
18712;DHT22;9485;49.386;8.674;2022-12-29T22:04:10;11.60;96.30
18712;DHT22;9485;49.386;8.674;2022-12-29T22:09:49;11.60;96.30
18712;DHT22;9485;49.386;8.674;2022-12-29T22:15:30;11.60;96.40
18712;DHT22;9485;49.386;8.674;2022-12-29T22:20:52;11.50;96.30
18712;DHT22;9485;49.386;8.674;2022-12-29T22:26:14;11.50;96.40
18712;DHT22;9485;49.386;8.674;2022-12-29T22:31:36;11.50;96.40
18712;DHT22;9485;49.386;8.674;2022-12-29T22:36:56;11.50;96.40
18712;DHT22;9485;49.386;8.674;2022-12-29T22:42:17;11.50;96.40
18712;DHT22;9485;49.386;8.674;2022-12-29T22:47:39;11.50;96.50
18712;DHT22;9485;49.386;8.674;2022-12-29T22:52:59;11.60;96.50
18712;DHT22;9485;49.386;8.674;2022-12-29T22:58:20;11.60;96.40
18712;DHT22;9485;49.386;8.674;2022-12-29T23:03:45;11.60;96.40
18712;DHT22;9485;49.386;8.674;2022-12-29T23:09:07;11.60;96.40
18712;DHT22;9485;49.386;8.674;2022-12-29T23:14:34;11.60;96.30
18712;DHT22;9485;49.386;8.674;2022-12-29T23:19:55;11.50;96.30
18712;DHT22;9485;49.386;8.674;2022-12-29T23:25:16;11.50;96.30
18712;DHT22;9485;49.386;8.674;2022-12-29T23:30:37;11.50;96.30
18712;DHT22;9485;49.386;8.674;2022-12-29T23:35:59;11.50;96.40
18712;DHT22;9485;49.386;8.674;2022-12-29T23:41:19;11.50;96.30
18712;DHT22;9485;49.386;8.674;2022-12-29T23:46:40;11.50;96.30
18712;DHT22;9485;49.386;8.674;2022-12-29T23:52:02;11.50;96.30
18712;DHT22;9485;49.386;8.674;2022-12-29T23:57:23;11.50;96.30
